Terminal Aerodrome Forecast
Issued by NWS Cleveland, OH

Home | Current Version | Previous Version | Graphics & Text | Print | Product List | Glossary On
Versions: 1 2 3 4 5 6 7 8 9 10 11 12 13 14 15 16 17 18 19 20 21 22 23 24
000
FTUS41 KCLE 241418 AAC
TAFCLE
TAF AMD
KCLE 241418Z 2414/2518 04010KT P6SM BKN035 OVC045
     FM241600 04012G20KT P6SM BKN035
     FM241900 04012KT P6SM SCT040
     FM250200 07006KT P6SM SCT035=

USA.gov is the U.S. government's official web portal to all federal, state and local government web resources and services.